Time;durP1;ratioP1;P1;durP2;ratioP2;P2;SDS_P1;SDS_P2;PMS_P1;PMS_P2;Temp;Humidity;BMP_temperature;BMP_pressure;BME280_temperature;BME280_humidity;BME280_pressure;Samples;Min_cycle;Max_cycle;Signal;HPM_P1;HPM_P2
2021/10/18 00:01:57;;;;;;;;;;;;;;;10.72;76.77;100356.41;5012873;28;886;-62
2021/10/18 00:04:24;;;;;;;;;;;;;;;10.72;76.44;100350.09;5012528;28;791;-62
2021/10/18 00:06:51;;;;;;;;;;;;;;;10.70;76.72;100355.22;5012446;28;863;-61
2021/10/18 00:09:17;;;;;;;;;;;;;;;10.75;76.67;100355.66;5012478;28;854;-62
2021/10/18 00:11:44;;;;;;;;;;;;;;;10.73;75.96;100351.66;5012581;28;850;-61
2021/10/18 00:14:10;;;;;;;;;;;;;;;10.75;76.46;100354.84;5012214;28;1952;-62
2021/10/18 00:16:39;;;;;;;;;;;;;;;10.73;76.27;100358.00;5012336;28;889;-62
2021/10/18 00:19:06;;;;;;;;;;;;;;;10.73;77.08;100359.97;5012139;28;1516;-62
2021/10/18 00:21:33;;;;;;;;;;;;;;;10.69;76.47;100354.44;5012215;28;913;-62
2021/10/18 00:23:59;;;;;;;;;;;;;;;10.72;76.56;100359.19;5012213;28;799;-62
2021/10/18 00:26:26;;;;;;;;;;;;;;;10.71;76.53;100354.84;5012405;28;819;-62
2021/10/18 00:28:53;;;;;;;;;;;;;;;10.71;76.62;100354.84;5012026;28;949;-62
2021/10/18 00:31:19;;;;;;;;;;;;;;;10.69;77.15;100356.38;5012090;28;815;-62
2021/10/18 00:33:46;;;;;;;;;;;;;;;10.68;77.21;100358.38;5011961;28;2005;-62
2021/10/18 00:36:13;;;;;;;;;;;;;;;10.67;77.39;100364.28;5012047;28;807;-62
2021/10/18 00:38:40;;;;;;;;;;;;;;;10.66;77.45;100355.19;5011967;28;819;-62
2021/10/18 00:41:06;;;;;;;;;;;;;;;10.66;76.98;100366.25;5012263;28;834;-62
2021/10/18 00:43:33;;;;;;;;;;;;;;;10.66;77.59;100365.47;5012214;28;851;-62
2021/10/18 00:45:59;;;;;;;;;;;;;;;10.67;77.26;100370.63;5011877;28;807;-62
2021/10/18 00:48:26;;;;;;;;;;;;;;;10.70;77.71;100372.59;5011816;28;875;-62
2021/10/18 00:50:56;;;;;;;;;;;;;;;10.70;77.60;100369.03;5012127;28;795;-62
2021/10/18 00:53:25;;;;;;;;;;;;;;;10.71;77.40;100368.66;5011789;28;800;-62
2021/10/18 00:55:52;;;;;;;;;;;;;;;10.71;77.33;100376.97;5011827;28;1910;-62
2021/10/18 00:58:19;;;;;;;;;;;;;;;10.72;78.44;100377.75;5011659;28;838;-62
2021/10/18 01:00:47;;;;;;;;;;;;;;;10.70;79.51;100374.56;5015270;28;795;-62
2021/10/18 01:03:14;;;;;;;;;;;;;;;10.69;78.27;100379.31;5018186;28;839;-61
2021/10/18 01:05:41;;;;;;;;;;;;;;;10.76;78.56;100384.06;5000522;28;1193;-62
2021/10/18 01:08:08;;;;;;;;;;;;;;;10.73;78.58;100382.88;5000593;28;1200;-62
2021/10/18 01:10:35;;;;;;;;;;;;;;;10.73;79.36;100380.13;5018267;28;803;-62
2021/10/18 01:13:02;;;;;;;;;;;;;;;10.72;79.46;100383.28;5018130;28;881;-62
2021/10/18 01:15:28;;;;;;;;;;;;;;;10.71;79.40;100379.72;5018144;28;1906;-62
2021/10/18 01:17:55;;;;;;;;;;;;;;;10.73;79.42;100382.06;5018232;28;1191;-62
2021/10/18 01:20:32;;;;;;;;;;;;;;;10.69;79.58;100382.09;5018159;28;816;-62
2021/10/18 01:22:59;;;;;;;;;;;;;;;10.63;80.50;100384.41;5018730;28;779;-62
2021/10/18 01:25:26;;;;;;;;;;;;;;;10.68;80.33;100376.94;5018031;28;803;-62
2021/10/18 01:27:51;;;;;;;;;;;;;;;10.73;80.30;100387.59;5018563;28;822;-62
2021/10/18 01:30:18;;;;;;;;;;;;;;;10.71;80.89;100388.00;5017980;28;783;-62
2021/10/18 01:32:45;;;;;;;;;;;;;;;10.68;80.91;100382.47;5018040;28;823;-62
2021/10/18 01:35:13;;;;;;;;;;;;;;;10.66;81.38;100377.31;5017928;28;1973;-62
2021/10/18 01:37:40;;;;;;;;;;;;;;;10.62;81.71;100384.78;5017957;28;890;-62
2021/10/18 01:40:12;;;;;;;;;;;;;;;10.60;82.18;100385.22;5017983;28;807;-62
2021/10/18 01:42:39;;;;;;;;;;;;;;;10.55;82.48;100377.28;5018044;28;804;-62
2021/10/18 01:45:07;;;;;;;;;;;;;;;10.52;82.64;100383.59;5017929;28;863;-62
2021/10/18 01:47:34;;;;;;;;;;;;;;;10.49;82.42;100381.59;5017906;28;796;-62
2021/10/18 01:50:06;;;;;;;;;;;;;;;10.52;82.76;100386.34;5017822;28;849;-62
2021/10/18 01:52:33;;;;;;;;;;;;;;;10.56;82.98;100380.81;5017853;28;846;-62
2021/10/18 01:55:00;;;;;;;;;;;;;;;10.52;83.16;100382.78;5017760;28;1882;-62
2021/10/18 01:57:26;;;;;;;;;;;;;;;10.49;83.10;100381.59;5017648;28;867;-62
2021/10/18 01:59:53;;;;;;;;;;;;;;;10.44;83.09;100386.72;5017799;28;877;-62
2021/10/18 02:02:19;;;;;;;;;;;;;;;10.38;83.22;100389.81;5017784;28;795;-62
2021/10/18 02:04:46;;;;;;;;;;;;;;;10.36;83.35;100391.41;5017701;28;824;-62
2021/10/18 02:07:13;;;;;;;;;;;;;;;10.34;83.29;100385.47;5017719;28;858;-62
2021/10/18 02:09:39;;;;;;;;;;;;;;;10.29;83.62;100391.34;5017700;28;823;-62
2021/10/18 02:12:06;;;;;;;;;;;;;;;10.23;83.73;100391.69;5013308;28;1376;-62
2021/10/18 02:14:33;;;;;;;;;;;;;;;10.20;83.96;100394.44;5014484;28;1886;-62
2021/10/18 02:16:59;;;;;;;;;;;;;;;10.17;84.44;100395.19;4996974;28;1296;-62
2021/10/18 02:19:26;;;;;;;;;;;;;;;10.14;84.60;100385.72;5014304;28;1281;-62
2021/10/18 02:21:53;;;;;;;;;;;;;;;10.12;84.99;100388.06;5014682;28;823;-62
2021/10/18 02:24:20;;;;;;;;;;;;;;;10.10;84.78;100395.94;5014318;28;874;-62
2021/10/18 02:26:46;;;;;;;;;;;;;;;10.05;85.16;100388.03;5014298;28;858;-62
2021/10/18 02:29:13;;;;;;;;;;;;;;;10.01;85.22;100381.69;5014333;28;800;-62
2021/10/18 02:31:39;;;;;;;;;;;;;;;9.98;85.65;100388.75;5014282;28;959;-62
2021/10/18 02:34:05;;;;;;;;;;;;;;;9.98;85.90;100393.50;5014144;28;1965;-62
2021/10/18 02:36:32;;;;;;;;;;;;;;;10.05;85.89;100389.97;5014203;28;835;-62
2021/10/18 02:38:59;;;;;;;;;;;;;;;10.10;85.74;100390.44;5014091;28;850;-62
2021/10/18 02:41:26;;;;;;;;;;;;;;;10.12;85.36;100396.34;5014112;28;870;-62
2021/10/18 02:43:53;;;;;;;;;;;;;;;10.11;85.30;100402.25;5014048;28;859;-62
2021/10/18 02:46:20;;;;;;;;;;;;;;;10.11;85.47;100403.03;5013984;28;882;-62
2021/10/18 02:48:46;;;;;;;;;;;;;;;10.13;85.00;100400.69;5013989;28;926;-62
2021/10/18 02:51:13;;;;;;;;;;;;;;;9.97;85.41;100375.34;5013998;28;812;-62
2021/10/18 02:53:39;;;;;;;;;;;;;;;10.12;85.39;100403.84;5014022;28;878;-62
2021/10/18 02:56:06;;;;;;;;;;;;;;;10.11;85.06;100408.56;4996287;28;1890;-62
2021/10/18 02:58:33;;;;;;;;;;;;;;;10.11;84.98;100407.78;5014024;28;787;-62
2021/10/18 03:00:59;;;;;;;;;;;;;;;10.10;85.25;100408.97;5014131;28;847;-62
2021/10/18 03:03:26;;;;;;;;;;;;;;;10.05;85.46;100407.38;5013796;28;1194;-62
2021/10/18 03:05:53;;;;;;;;;;;;;;;10.02;85.72;100408.91;5014233;28;850;-62
2021/10/18 03:08:19;;;;;;;;;;;;;;;10.01;85.87;100404.56;5013824;28;1258;-62
2021/10/18 03:10:46;;;;;;;;;;;;;;;10.01;86.00;100406.56;5013548;28;816;-62
2021/10/18 03:13:14;;;;;;;;;;;;;;;10.01;86.35;100409.31;5013382;28;883;-62
2021/10/18 03:15:41;;;;;;;;;;;;;;;9.99;86.26;100401.41;5013732;28;1894;-62
2021/10/18 03:18:08;;;;;;;;;;;;;;;9.98;86.29;100404.53;5013532;28;1203;-62
2021/10/18 03:20:35;;;;;;;;;;;;;;;9.99;86.12;100404.16;4996054;28;828;-62
2021/10/18 03:23:01;;;;;;;;;;;;;;;9.99;86.09;100401.41;5013217;28;854;-62
2021/10/18 03:25:31;;;;;;;;;;;;;;;9.97;86.48;100403.75;5013154;28;878;-62
2021/10/18 03:27:57;;;;;;;;;;;;;;;9.93;86.68;100407.66;5013463;28;866;-62
2021/10/18 03:30:23;;;;;;;;;;;;;;;9.91;86.71;100408.03;5013579;28;886;-62
2021/10/18 03:32:51;;;;;;;;;;;;;;;9.91;87.08;100399.75;5013206;28;871;-62
2021/10/18 03:35:17;;;;;;;;;;;;;;;9.93;86.83;100410.44;5013141;28;1914;-62
2021/10/18 03:37:44;;;;;;;;;;;;;;;9.91;87.00;100408.03;5013494;28;862;-62
2021/10/18 03:40:12;;;;;;;;;;;;;;;9.91;87.11;100410.81;5013196;28;859;-62
2021/10/18 03:42:38;;;;;;;;;;;;;;;9.94;87.05;100406.47;5013773;28;755;-62
2021/10/18 03:45:08;;;;;;;;;;;;;;;9.95;86.84;100403.34;5013232;28;873;-62
2021/10/18 03:47:35;;;;;;;;;;;;;;;9.94;87.15;100401.78;5013212;28;853;-62
2021/10/18 03:50:02;;;;;;;;;;;;;;;9.93;86.85;100408.47;5012871;28;914;-62
2021/10/18 03:52:28;;;;;;;;;;;;;;;9.93;87.26;100413.19;5012761;28;791;-62
2021/10/18 03:54:55;;;;;;;;;;;;;;;9.93;87.26;100408.47;5012689;28;1886;-62
2021/10/18 03:57:22;;;;;;;;;;;;;;;9.93;87.37;100413.97;5012730;28;860;-62
2021/10/18 03:59:49;;;;;;;;;;;;;;;9.97;87.40;100411.25;5013061;28;811;-62
2021/10/18 04:02:15;;;;;;;;;;;;;;;10.03;87.15;100415.25;5012875;28;787;-62
2021/10/18 04:04:42;;;;;;;;;;;;;;;10.05;86.87;100414.84;5012904;28;823;-62
2021/10/18 04:07:08;;;;;;;;;;;;;;;10.11;86.65;100413.31;5012735;28;811;-62
2021/10/18 04:09:37;;;;;;;;;;;;;;;10.14;86.47;100420.84;5012928;28;787;-62
2021/10/18 04:12:03;;;;;;;;;;;;;;;10.12;86.34;100415.69;5012838;28;867;-62
2021/10/18 04:14:30;;;;;;;;;;;;;;;10.07;86.30;100418.00;5012647;28;1947;-62
2021/10/18 04:16:57;;;;;;;;;;;;;;;10.01;86.59;100420.34;5012703;28;960;-62
2021/10/18 04:19:23;;;;;;;;;;;;;;;9.97;86.98;100420.31;5012395;28;1344;-62
2021/10/18 04:21:50;;;;;;;;;;;;;;;9.95;86.80;100414.38;5013116;28;751;-62
2021/10/18 04:24:15;;;;;;;;;;;;;;;9.95;86.84;100414.38;5012331;28;863;-62
2021/10/18 04:26:42;;;;;;;;;;;;;;;9.91;86.91;100427.38;5012473;28;901;-62
2021/10/18 04:29:08;;;;;;;;;;;;;;;9.93;87.52;100419.50;5012135;28;791;-62
2021/10/18 04:31:35;;;;;;;;;;;;;;;9.95;87.19;100422.69;5012066;28;807;-62
2021/10/18 04:34:02;;;;;;;;;;;;;;;9.93;87.02;100422.25;5012009;28;1914;-62
2021/10/18 04:36:29;;;;;;;;;;;;;;;9.93;86.98;100424.25;5011360;28;831;-62
2021/10/18 04:38:56;;;;;;;;;;;;;;;9.94;86.82;100426.63;5012021;28;823;-62
2021/10/18 04:41:26;;;;;;;;;;;;;;;9.96;87.01;100432.56;5012004;28;791;-62
2021/10/18 04:43:53;;;;;;;;;;;;;;;9.98;86.99;100432.16;5012561;28;780;-62
2021/10/18 04:46:19;;;;;;;;;;;;;;;10.02;86.85;100428.25;5011902;28;859;-62
2021/10/18 04:48:46;;;;;;;;;;;;;;;10.07;86.84;100434.59;5011907;28;819;-62
2021/10/18 04:51:12;;;;;;;;;;;;;;;10.08;86.59;100431.44;5012024;28;930;-62
2021/10/18 04:53:39;;;;;;;;;;;;;;;10.08;86.51;100436.19;5011799;28;867;-62
2021/10/18 04:56:06;;;;;;;;;;;;;;;10.07;86.81;100449.22;5011702;28;1893;-62
2021/10/18 04:58:32;;;;;;;;;;;;;;;10.09;86.66;100449.63;5011779;28;796;-62
2021/10/18 05:00:59;;;;;;;;;;;;;;;10.10;86.48;100453.16;4994179;28;1331;-62
2021/10/18 05:03:26;;;;;;;;;;;;;;;10.09;86.69;100448.81;5011729;28;854;-62
2021/10/18 05:05:51;;;;;;;;;;;;;;;10.11;86.73;100451.97;4994177;28;1196;-62
2021/10/18 05:08:18;;;;;;;;;;;;;;;10.12;86.90;100459.09;5011690;28;886;-62
2021/10/18 05:10:46;;;;;;;;;;;;;;;10.10;86.95;100450.41;5011726;28;874;-62
2021/10/18 05:18:23;;;;;;;;;;;;;;;10.11;87.35;100460.25;5299506;23;1508;-62
2021/10/18 05:20:50;;;;;;;;;;;;;;;10.14;87.18;100467.81;5011621;28;807;-61
2021/10/18 05:23:17;;;;;;;;;;;;;;;10.17;87.09;100473.34;5011832;28;838;-61
2021/10/18 05:25:44;;;;;;;;;;;;;;;10.19;87.02;100472.97;5011510;28;853;-62
2021/10/18 05:28:11;;;;;;;;;;;;;;;10.20;86.54;100474.56;5011459;28;879;-62
2021/10/18 05:30:38;;;;;;;;;;;;;;;10.23;86.68;100480.09;5011511;28;830;-62
2021/10/18 05:33:05;;;;;;;;;;;;;;;10.25;86.39;100485.25;5011459;28;826;-62
2021/10/18 05:35:32;;;;;;;;;;;;;;;10.25;86.81;100485.25;5011331;28;1914;-62
2021/10/18 05:37:59;;;;;;;;;;;;;;;10.30;86.65;100481.34;5011435;28;902;-61
2021/10/18 05:40:25;;;;;;;;;;;;;;;10.34;86.36;100484.94;5011424;28;834;-62
2021/10/18 05:42:52;;;;;;;;;;;;;;;10.41;86.36;100480.25;5011393;28;839;-61
2021/10/18 05:45:19;;;;;;;;;;;;;;;10.48;86.08;100492.53;5011381;28;835;-62
2021/10/18 05:48:03;;;;;;;;;;;;;;;10.52;86.36;100490.56;5014412;28;867;-62
2021/10/18 05:50:30;;;;;;;;;;;;;;;10.57;86.21;100496.53;5015363;28;827;-62
2021/10/18 05:52:57;;;;;;;;;;;;;;;10.61;86.06;100493.81;5015379;28;830;-62
2021/10/18 05:55:24;;;;;;;;;;;;;;;10.62;85.95;100503.66;5015516;28;1890;-62
2021/10/18 05:57:52;;;;;;;;;;;;;;;10.61;85.72;100513.16;5015236;28;775;-61
2021/10/18 06:00:19;;;;;;;;;;;;;;;10.66;85.72;100510.00;5015044;28;905;-62
2021/10/18 06:02:46;;;;;;;;;;;;;;;10.72;85.63;100516.75;4997379;28;1315;-61
2021/10/18 06:05:13;;;;;;;;;;;;;;;10.77;85.61;100513.63;5015293;28;865;-62
2021/10/18 06:07:40;;;;;;;;;;;;;;;10.82;85.44;100510.50;5015281;28;982;-62
2021/10/18 06:10:07;;;;;;;;;;;;;;;10.89;85.10;100517.25;5014794;28;838;-62
2021/10/18 06:12:34;;;;;;;;;;;;;;;10.91;84.78;100517.66;4997297;28;1277;-62
2021/10/18 06:15:02;;;;;;;;;;;;;;;10.94;84.51;100523.19;4997162;28;1950;-62
2021/10/18 06:17:29;;;;;;;;;;;;;;;11.01;84.53;100525.22;5014747;28;1550;-62
2021/10/18 06:19:55;;;;;;;;;;;;;;;11.09;84.18;100518.53;5015014;28;810;-62
2021/10/18 06:22:22;;;;;;;;;;;;;;;11.18;83.85;100526.47;5014754;28;846;-62
2021/10/18 06:24:51;;;;;;;;;;;;;;;11.25;83.87;100529.28;5014638;28;878;-62
2021/10/18 06:27:18;;;;;;;;;;;;;;;11.33;83.74;100525.38;5014317;28;815;-62
2021/10/18 06:29:45;;;;;;;;;;;;;;;11.42;83.58;100533.31;5014510;28;975;-62
2021/10/18 06:32:11;;;;;;;;;;;;;;;11.45;83.34;100530.53;5014524;28;860;-62
2021/10/18 06:34:38;;;;;;;;;;;;;;;11.54;83.81;100535.72;5014288;28;1918;-62
2021/10/18 06:37:05;;;;;;;;;;;;;;;11.65;83.25;100541.28;5014391;28;807;-62
2021/10/18 06:39:31;;;;;;;;;;;;;;;11.75;83.56;100540.50;5014346;28;872;-62
2021/10/18 06:41:58;;;;;;;;;;;;;;;11.91;83.31;100533.84;5014571;28;791;-62
2021/10/18 06:44:25;;;;;;;;;;;;;;;12.01;83.32;100539.38;5014341;28;818;-62
2021/10/18 06:46:51;;;;;;;;;;;;;;;12.09;82.76;100545.72;5014409;28;807;-62
2021/10/18 06:49:18;;;;;;;;;;;;;;;12.09;82.90;100548.47;5014104;28;918;-62
2021/10/18 06:51:55;;;;;;;;;;;;;;;12.11;82.54;100542.56;5014575;28;846;-62
2021/10/18 06:54:22;;;;;;;;;;;;;;;12.21;82.67;100550.09;5013837;28;1886;-62
2021/10/18 06:56:49;;;;;;;;;;;;;;;12.29;82.54;100539.78;5013818;28;822;-62
2021/10/18 06:59:16;;;;;;;;;;;;;;;12.34;82.35;100550.50;5013158;28;814;-62
2021/10/18 07:01:42;;;;;;;;;;;;;;;12.44;82.66;100535.84;5013711;28;885;-62
2021/10/18 07:04:09;;;;;;;;;;;;;;;12.52;82.11;100547.69;5013710;28;851;-62
2021/10/18 07:06:37;;;;;;;;;;;;;;;12.57;82.00;100547.31;5013653;28;858;-62
2021/10/18 07:09:04;;;;;;;;;;;;;;;12.65;81.85;100552.44;5013587;28;794;-62
2021/10/18 07:11:30;;;;;;;;;;;;;;;12.72;81.78;100554.41;4995992;28;1375;-62
2021/10/18 07:13:57;;;;;;;;;;;;;;;12.79;81.40;100537.75;5013797;28;1890;-62
2021/10/18 07:16:24;;;;;;;;;;;;;;;12.93;81.17;100544.44;5013460;28;900;-62
2021/10/18 07:18:50;;;;;;;;;;;;;;;13.03;80.93;100549.97;5013259;28;1373;-62
2021/10/18 07:21:17;;;;;;;;;;;;;;;13.11;80.27;100542.41;5013404;28;897;-62
2021/10/18 07:23:46;;;;;;;;;;;;;;;13.21;80.25;100547.13;5013319;28;798;-62
2021/10/18 07:26:13;;;;;;;;;;;;;;;13.31;79.79;100545.53;5013328;28;830;-62
2021/10/18 07:28:40;;;;;;;;;;;;;;;13.44;79.46;100545.88;4995603;28;1300;-62
2021/10/18 07:31:07;;;;;;;;;;;;;;;13.65;79.00;100548.53;5013221;28;835;-62
2021/10/18 07:33:33;;;;;;;;;;;;;;;13.79;78.29;100555.22;5013119;28;810;-62
2021/10/18 07:36:08;;;;;;;;;;;;;;;13.85;78.15;100553.59;5013027;28;1918;-62
2021/10/18 07:38:35;;;;;;;;;;;;;;;14.01;77.86;100550.31;5013013;28;881;-62
2021/10/18 07:41:02;;;;;;;;;;;;;;;14.11;76.85;100548.66;5013016;28;819;-62
2021/10/18 07:43:29;;;;;;;;;;;;;;;14.24;76.71;100544.97;5012929;28;858;-62
2021/10/18 07:45:56;;;;;;;;;;;;;;;14.45;76.64;100551.56;5012798;28;883;-62
2021/10/18 07:48:22;;;;;;;;;;;;;;;14.63;75.83;100543.06;5012854;28;791;-62
2021/10/18 07:50:49;;;;;;;;;;;;;;;14.82;75.35;100553.59;4995144;28;873;-62
2021/10/18 07:53:16;;;;;;;;;;;;;;;14.96;74.15;100547.09;5012782;28;858;-62
2021/10/18 07:55:43;;;;;;;;;;;;;;;15.08;73.47;100546.56;5012630;28;1957;-62
2021/10/18 07:58:09;;;;;;;;;;;;;;;15.11;72.35;100547.72;5012717;28;862;-62
2021/10/18 08:00:35;;;;;;;;;;;;;;;15.23;72.42;100551.97;5012630;28;826;-62
2021/10/18 08:03:02;;;;;;;;;;;;;;;15.55;72.03;100553.53;5012184;28;874;-62
2021/10/18 08:05:28;;;;;;;;;;;;;;;15.81;71.22;100552.00;5012577;28;768;-62
2021/10/18 08:07:55;;;;;;;;;;;;;;;15.97;70.84;100546.59;5012638;28;803;-63
2021/10/18 08:10:25;;;;;;;;;;;;;;;16.09;70.30;100554.41;5011659;28;862;-63
2021/10/18 08:12:52;;;;;;;;;;;;;;;16.18;69.81;100545.50;4994979;28;1252;-63
2021/10/18 08:15:19;;;;;;;;;;;;;;;16.27;70.10;100553.31;5012322;28;1898;-62
2021/10/18 08:17:46;;;;;;;;;;;;;;;16.40;68.91;100550.72;5012496;28;1358;-63
2021/10/18 08:20:13;;;;;;;;;;;;;;;16.59;68.55;100551.97;4994826;28;1169;-62
2021/10/18 08:22:39;;;;;;;;;;;;;;;16.81;68.02;100539.22;5012453;28;819;-63
2021/10/18 08:25:06;;;;;;;;;;;;;;;16.79;67.56;100538.88;5012164;28;837;-63
2021/10/18 08:27:33;;;;;;;;;;;;;;;16.91;68.20;100540.25;5012450;28;811;-63
2021/10/18 08:29:59;;;;;;;;;;;;;;;17.04;67.26;100538.38;5012454;28;851;-62
2021/10/18 08:32:27;;;;;;;;;;;;;;;17.11;67.08;100535.47;5012214;28;804;-62
2021/10/18 08:34:53;;;;;;;;;;;;;;;17.21;66.87;100544.06;5012283;28;1914;-62
2021/10/18 08:37:20;;;;;;;;;;;;;;;17.19;66.17;100538.88;4994441;28;1193;-63
2021/10/18 08:42:24;;;;;;;;;;;;;;;17.52;64.37;100539.81;5012162;28;747;-62
2021/10/18 08:44:52;;;;;;;;;;;;;;;17.45;65.31;100534.34;5011834;28;787;-63
2021/10/18 08:47:18;;;;;;;;;;;;;;;17.70;65.28;100531.00;5011939;28;921;-62
2021/10/18 08:49:44;;;;;;;;;;;;;;;17.98;64.20;100530.81;5011923;28;878;-63
2021/10/18 08:52:11;;;;;;;;;;;;;;;18.27;63.73;100531.69;5011974;28;890;-63
2021/10/18 08:54:38;;;;;;;;;;;;;;;18.34;60.51;100519.53;5011950;28;1910;-63
2021/10/18 08:57:05;;;;;;;;;;;;;;;18.21;59.36;100527.06;5011974;28;867;-62
2021/10/18 08:59:31;;;;;;;;;;;;;;;18.19;59.88;100532.31;5012027;28;811;-62
2021/10/18 09:01:58;;;;;;;;;;;;;;;18.16;58.63;100529.16;5012059;28;890;-63
2021/10/18 09:04:28;;;;;;;;;;;;;;;18.15;58.90;100527.56;5012128;28;855;-63
2021/10/18 09:06:59;;;;;;;;;;;;;;;18.43;59.00;100530.88;5011837;28;810;-63
2021/10/18 09:09:29;;;;;;;;;;;;;;;18.81;60.52;100521.16;5011769;28;838;-63
2021/10/18 09:11:58;;;;;;;;;;;;;;;19.06;57.81;100520.47;5011670;28;858;-62
2021/10/18 09:14:25;;;;;;;;;;;;;;;19.02;58.77;100522.56;5011844;28;1957;-63
2021/10/18 09:16:52;;;;;;;;;;;;;;;18.81;56.78;100529.53;5011881;28;904;-63
2021/10/18 09:19:22;;;;;;;;;;;;;;;18.72;61.15;100518.94;5011410;28;1413;-63
2021/10/18 09:21:49;;;;;;;;;;;;;;;18.91;59.49;100520.84;5013258;28;819;-63
2021/10/18 09:24:17;;;;;;;;;;;;;;;18.93;56.51;100515.59;5015596;28;861;-63
2021/10/18 09:26:44;;;;;;;;;;;;;;;19.06;58.25;100506.44;5015526;28;854;-63
2021/10/18 09:29:13;;;;;;;;;;;;;;;19.04;57.44;100512.47;5015781;28;858;-63
2021/10/18 09:31:42;;;;;;;;;;;;;;;18.93;59.43;100512.00;5015430;28;811;-63
2021/10/18 09:34:14;;;;;;;;;;;;;;;19.09;58.27;100502.75;5015391;28;1914;-63
2021/10/18 09:36:42;;;;;;;;;;;;;;;18.95;58.68;100498.34;5015429;28;802;-63
2021/10/18 09:39:17;;;;;;;;;;;;;;;18.78;58.33;100492.00;5015134;28;795;-62
2021/10/18 09:41:55;;;;;;;;;;;;;;;18.33;57.79;100496.38;5015470;28;841;-63
2021/10/18 09:44:35;;;;;;;;;;;;;;;18.07;59.22;100495.44;5015173;28;811;-63
2021/10/18 09:47:20;;;;;;;;;;;;;;;18.11;61.12;100489.72;5015141;28;873;-63
2021/10/18 10:51:15;;;;;;;;;;;;;;;19.76;55.05;100445.88;5013995;28;602;-63
2021/10/18 10:56:26;;;;;;;;;;;;;;;19.92;51.03;100431.69;5013798;28;1953;-63
2021/10/18 10:59:01;;;;;;;;;;;;;;;20.06;50.83;100435.28;5013982;28;841;-64
2021/10/18 11:01:39;;;;;;;;;;;;;;;20.22;48.53;100425.91;5013886;28;858;-62
2021/10/18 11:04:25;;;;;;;;;;;;;;;20.43;48.04;100430.00;5013801;28;815;-63
2021/10/18 11:06:51;;;;;;;;;;;;;;;20.75;47.91;100423.22;5013703;28;818;-63
2021/10/18 11:09:40;;;;;;;;;;;;;;;21.08;48.43;100422.78;5013555;28;909;-63
2021/10/18 11:12:18;;;;;;;;;;;;;;;21.67;50.23;100422.91;5013500;28;818;-63
2021/10/18 11:14:57;;;;;;;;;;;;;;;22.27;46.54;100410.38;5013488;28;1946;-64
2021/10/18 11:17:25;;;;;;;;;;;;;;;21.79;46.48;100422.78;5013765;28;1234;-63
2021/10/18 11:19:55;;;;;;;;;;;;;;;20.83;45.68;100415.34;5013752;28;791;-62
2021/10/18 11:22:26;;;;;;;;;;;;;;;20.15;48.52;100429.75;5013519;28;807;-63
2021/10/18 11:24:53;;;;;;;;;;;;;;;19.82;50.14;100429.25;5013221;28;886;-63
2021/10/18 11:27:46;;;;;;;;;;;;;;;19.55;52.52;100422.88;5013228;28;908;-63
2021/10/18 11:30:14;;;;;;;;;;;;;;;19.54;54.45;100421.31;5010638;28;1420;-63
2021/10/18 11:32:41;;;;;;;;;;;;;;;19.61;54.94;100413.88;5013159;28;854;-63
2021/10/18 11:35:14;;;;;;;;;;;;;;;19.50;55.29;100415.03;5013087;28;1910;-63
2021/10/18 11:37:52;;;;;;;;;;;;;;;19.32;55.67;100409.19;5013139;28;811;-63
2021/10/18 11:40:21;;;;;;;;;;;;;;;19.12;55.83;100415.03;5012932;28;874;-63
2021/10/18 11:42:51;;;;;;;;;;;;;;;18.96;56.88;100413.84;5012941;28;811;-63
2021/10/18 11:45:20;;;;;;;;;;;;;;;18.66;55.76;100409.50;5012909;28;886;-63
2021/10/18 11:47:46;;;;;;;;;;;;;;;18.46;57.66;100412.47;5012892;28;866;-63
2021/10/18 11:50:15;;;;;;;;;;;;;;;18.31;58.10;100411.28;5012847;28;926;-63
2021/10/18 11:52:43;;;;;;;;;;;;;;;18.00;57.64;100411.69;5012802;28;807;-63
2021/10/18 11:55:11;;;;;;;;;;;;;;;17.85;58.34;100407.69;4995075;28;1939;-63
2021/10/18 11:57:39;;;;;;;;;;;;;;;17.75;58.88;100410.28;5012773;28;811;-63
2021/10/18 12:00:08;;;;;;;;;;;;;;;17.71;59.62;100411.63;4995398;28;1319;-62
2021/10/18 12:02:39;;;;;;;;;;;;;;;17.69;60.34;100408.47;5012848;28;811;-63
2021/10/18 12:05:06;;;;;;;;;;;;;;;17.77;61.05;100409.84;5012659;28;874;-62
2021/10/18 12:07:44;;;;;;;;;;;;;;;17.84;61.79;100409.72;5012559;28;811;-62
2021/10/18 12:10:30;;;;;;;;;;;;;;;17.96;61.57;100411.00;5012402;28;859;-62
2021/10/18 12:13:06;;;;;;;;;;;;;;;18.10;61.63;100404.25;5012412;28;843;-63
2021/10/18 12:15:35;;;;;;;;;;;;;;;18.20;61.42;100396.78;5012367;28;1898;-63
2021/10/18 12:18:02;;;;;;;;;;;;;;;18.19;61.30;100400.81;5012410;28;1341;-63
2021/10/18 12:20:30;;;;;;;;;;;;;;;18.19;61.37;100400.81;5012362;28;878;-63
2021/10/18 12:23:04;;;;;;;;;;;;;;;18.20;61.65;100407.97;4994680;28;1217;-63
2021/10/18 12:25:32;;;;;;;;;;;;;;;18.14;61.45;100399.34;5012232;28;830;-63
2021/10/18 12:28:19;;;;;;;;;;;;;;;18.19;62.19;100398.81;5012273;28;826;-63
2021/10/18 12:30:46;;;;;;;;;;;;;;;18.12;62.59;100391.41;5012148;28;1246;-63
2021/10/18 12:33:13;;;;;;;;;;;;;;;18.12;62.97;100399.00;5012442;28;800;-63
2021/10/18 12:35:40;;;;;;;;;;;;;;;18.12;63.42;100393.41;5012080;28;1910;-63
2021/10/18 12:38:13;;;;;;;;;;;;;;;18.12;63.73;100391.41;5012063;28;878;-63
2021/10/18 12:40:40;;;;;;;;;;;;;;;18.10;63.55;100399.44;5012044;28;867;-63
2021/10/18 12:43:25;;;;;;;;;;;;;;;17.92;62.88;100399.91;5012001;28;831;-63
2021/10/18 12:45:52;;;;;;;;;;;;;;;17.77;62.81;100398.66;4994435;28;1332;-63
2021/10/18 12:48:24;;;;;;;;;;;;;;;17.73;62.96;100406.34;5011963;28;786;-63
2021/10/18 12:50:51;;;;;;;;;;;;;;;17.85;63.16;100399.31;5012403;28;779;-63
2021/10/18 12:53:30;;;;;;;;;;;;;;;17.84;63.31;100406.13;5012570;28;829;-63
2021/10/18 12:55:58;;;;;;;;;;;;;;;17.87;63.52;100405.25;5011202;28;1890;-63
2021/10/18 12:58:26;;;;;;;;;;;;;;;17.94;63.90;100407.84;5011824;28;799;-63
2021/10/18 13:00:52;;;;;;;;;;;;;;;17.99;63.72;100398.94;5011994;28;802;-63
2021/10/18 13:03:20;;;;;;;;;;;;;;;17.93;63.60;100403.50;5011802;28;795;-63
2021/10/18 13:05:48;;;;;;;;;;;;;;;17.92;63.74;100418.69;5011716;28;803;-63
2021/10/18 13:08:16;;;;;;;;;;;;;;;17.88;64.21;100412.41;5011782;28;799;-63
2021/10/18 13:10:43;;;;;;;;;;;;;;;17.88;64.74;100420.78;5011604;28;771;-63
2021/10/18 13:13:12;;;;;;;;;;;;;;;17.83;64.71;100421.31;5011679;28;846;-63
2021/10/18 13:15:40;;;;;;;;;;;;;;;17.77;65.08;100418.22;5011598;28;1890;-62
2021/10/18 13:18:08;;;;;;;;;;;;;;;17.76;65.48;100414.66;5011869;28;1240;-63
2021/10/18 13:20:35;;;;;;;;;;;;;;;17.73;65.64;100418.34;5011944;28;858;-62
2021/10/18 13:23:02;;;;;;;;;;;;;;;17.59;65.57;100417.88;5011574;28;829;-62
2021/10/18 13:25:30;;;;;;;;;;;;;;;17.44;65.94;100421.00;5011609;28;814;-63
2021/10/18 13:27:57;;;;;;;;;;;;;;;17.36;66.12;100422.41;5011665;28;784;-63
2021/10/18 13:30:26;;;;;;;;;;;;;;;17.28;66.39;100423.78;5012033;28;791;-62
2021/10/18 13:32:54;;;;;;;;;;;;;;;17.27;66.71;100422.22;5011631;28;850;-63
2021/10/18 13:35:21;;;;;;;;;;;;;;;17.21;66.83;100423.94;5011457;28;1977;-63
2021/10/18 13:37:49;;;;;;;;;;;;;;;17.16;67.33;100422.47;5011611;28;799;-62
2021/10/18 13:40:17;;;;;;;;;;;;;;;17.14;67.55;100427.69;5011370;28;902;-62
2021/10/18 13:42:44;;;;;;;;;;;;;;;17.09;67.94;100429.00;5011478;28;811;-62
2021/10/18 13:45:12;;;;;;;;;;;;;;;16.99;68.51;100420.84;5011466;28;823;-62
2021/10/18 13:47:40;;;;;;;;;;;;;;;16.87;68.99;100419.47;5011629;28;890;-62
2021/10/18 13:50:07;;;;;;;;;;;;;;;16.72;69.74;100427.34;5011354;28;799;-62
2021/10/18 13:52:34;;;;;;;;;;;;;;;16.53;70.22;100426.88;5011373;28;854;-63
2021/10/18 13:55:01;;;;;;;;;;;;;;;16.43;70.76;100436.28;5011188;28;1890;-62
2021/10/18 13:57:30;;;;;;;;;;;;;;;16.37;71.22;100429.59;5011335;28;822;-62
2021/10/18 13:59:57;;;;;;;;;;;;;;;16.28;71.21;100432.97;5011275;28;922;-62
2021/10/18 14:02:22;;;;;;;;;;;;;;;16.16;70.32;100430.00;5011205;28;895;-62
2021/10/18 14:04:49;;;;;;;;;;;;;;;15.90;69.27;100435.22;5011223;28;823;-62
2021/10/18 14:07:16;;;;;;;;;;;;;;;15.69;69.56;100441.91;5011895;28;894;-62
2021/10/18 14:09:43;;;;;;;;;;;;;;;15.54;69.84;100441.31;5014857;28;831;-62
2021/10/18 14:12:11;;;;;;;;;;;;;;;15.41;69.80;100437.56;5015058;28;823;-62